sensor_id;sensor_type;location;lat;lon;timestamp;P1;durP1;ratioP1;P2;durP2;ratioP2
47625;SDS011;33342;45.574;9.252;2023-04-30T00:00:59;22.40;;;17.55;;
47625;SDS011;33342;45.574;9.252;2023-04-30T00:03:26;22.80;;;19.27;;
47625;SDS011;33342;45.574;9.252;2023-04-30T00:05:53;22.92;;;19.48;;
47625;SDS011;33342;45.574;9.252;2023-04-30T00:08:20;24.63;;;19.60;;
47625;SDS011;33342;45.574;9.252;2023-04-30T00:10:47;23.67;;;19.40;;
47625;SDS011;33342;45.574;9.252;2023-04-30T00:13:14;22.73;;;19.20;;
47625;SDS011;33342;45.574;9.252;2023-04-30T00:15:41;25.15;;;19.73;;
47625;SDS011;33342;45.574;9.252;2023-04-30T00:18:08;23.35;;;18.42;;
47625;SDS011;33342;45.574;9.252;2023-04-30T00:20:36;26.35;;;19.92;;
47625;SDS011;33342;45.574;9.252;2023-04-30T00:23:03;20.35;;;18.08;;
47625;SDS011;33342;45.574;9.252;2023-04-30T00:25:30;23.73;;;19.23;;
47625;SDS011;33342;45.574;9.252;2023-04-30T00:27:56;23.33;;;20.83;;
47625;SDS011;33342;45.574;9.252;2023-04-30T00:30:23;24.40;;;19.30;;
47625;SDS011;33342;45.574;9.252;2023-04-30T00:32:51;25.17;;;20.52;;
47625;SDS011;33342;45.574;9.252;2023-04-30T00:35:18;22.98;;;19.10;;
47625;SDS011;33342;45.574;9.252;2023-04-30T00:37:45;26.40;;;20.08;;
47625;SDS011;33342;45.574;9.252;2023-04-30T00:40:12;24.85;;;19.88;;
47625;SDS011;33342;45.574;9.252;2023-04-30T00:42:39;22.20;;;19.15;;
47625;SDS011;33342;45.574;9.252;2023-04-30T00:45:06;27.52;;;21.88;;
47625;SDS011;33342;45.574;9.252;2023-04-30T00:47:34;25.38;;;19.58;;
47625;SDS011;33342;45.574;9.252;2023-04-30T00:50:02;27.98;;;20.85;;
47625;SDS011;33342;45.574;9.252;2023-04-30T00:52:29;28.08;;;21.30;;
47625;SDS011;33342;45.574;9.252;2023-04-30T00:54:56;25.98;;;21.08;;
47625;SDS011;33342;45.574;9.252;2023-04-30T00:57:23;23.17;;;20.10;;
47625;SDS011;33342;45.574;9.252;2023-04-30T00:59:52;24.05;;;20.98;;
47625;SDS011;33342;45.574;9.252;2023-04-30T01:02:20;22.67;;;19.80;;
47625;SDS011;33342;45.574;9.252;2023-04-30T01:04:49;25.17;;;20.77;;
47625;SDS011;33342;45.574;9.252;2023-04-30T01:07:17;23.95;;;20.42;;
47625;SDS011;33342;45.574;9.252;2023-04-30T01:09:44;23.58;;;21.08;;
47625;SDS011;33342;45.574;9.252;2023-04-30T01:12:17;26.38;;;20.70;;
47625;SDS011;33342;45.574;9.252;2023-04-30T01:20:49;27.10;;;22.55;;
47625;SDS011;33342;45.574;9.252;2023-04-30T01:29:09;25.95;;;22.38;;
47625;SDS011;33342;45.574;9.252;2023-04-30T01:31:38;29.00;;;23.77;;
47625;SDS011;33342;45.574;9.252;2023-04-30T01:34:10;26.63;;;23.60;;
47625;SDS011;33342;45.574;9.252;2023-04-30T01:48:02;28.52;;;25.42;;
47625;SDS011;33342;45.574;9.252;2023-04-30T01:50:48;28.17;;;25.17;;
47625;SDS011;33342;45.574;9.252;2023-04-30T01:53:20;27.85;;;24.80;;
47625;SDS011;33342;45.574;9.252;2023-04-30T01:55:50;29.75;;;24.67;;
47625;SDS011;33342;45.574;9.252;2023-04-30T01:58:23;27.90;;;24.30;;
47625;SDS011;33342;45.574;9.252;2023-04-30T02:00:52;28.30;;;24.38;;
47625;SDS011;33342;45.574;9.252;2023-04-30T02:03:19;27.05;;;24.17;;
47625;SDS011;33342;45.574;9.252;2023-04-30T02:05:46;29.13;;;26.08;;
47625;SDS011;33342;45.574;9.252;2023-04-30T02:08:13;29.92;;;24.52;;
47625;SDS011;33342;45.574;9.252;2023-04-30T02:10:40;28.85;;;24.58;;
47625;SDS011;33342;45.574;9.252;2023-04-30T02:13:07;29.52;;;24.23;;
47625;SDS011;33342;45.574;9.252;2023-04-30T02:15:35;28.85;;;23.48;;
47625;SDS011;33342;45.574;9.252;2023-04-30T02:18:02;25.83;;;23.02;;
47625;SDS011;33342;45.574;9.252;2023-04-30T02:20:29;31.02;;;25.20;;
47625;SDS011;33342;45.574;9.252;2023-04-30T02:22:56;27.15;;;24.25;;
47625;SDS011;33342;45.574;9.252;2023-04-30T02:25:23;29.63;;;24.10;;
47625;SDS011;33342;45.574;9.252;2023-04-30T02:27:51;25.95;;;22.38;;
47625;SDS011;33342;45.574;9.252;2023-04-30T02:30:18;30.25;;;23.38;;
47625;SDS011;33342;45.574;9.252;2023-04-30T02:32:46;26.83;;;23.92;;
47625;SDS011;33342;45.574;9.252;2023-04-30T02:35:13;29.27;;;24.25;;
47625;SDS011;33342;45.574;9.252;2023-04-30T02:37:40;27.85;;;23.50;;
47625;SDS011;33342;45.574;9.252;2023-04-30T02:40:08;26.98;;;23.23;;
47625;SDS011;33342;45.574;9.252;2023-04-30T02:42:36;27.05;;;24.20;;
47625;SDS011;33342;45.574;9.252;2023-04-30T02:45:03;27.48;;;23.55;;
47625;SDS011;33342;45.574;9.252;2023-04-30T02:47:30;26.95;;;23.35;;
47625;SDS011;33342;45.574;9.252;2023-04-30T02:49:57;30.90;;;25.88;;
47625;SDS011;33342;45.574;9.252;2023-04-30T02:52:24;28.83;;;25.13;;
47625;SDS011;33342;45.574;9.252;2023-04-30T02:54:52;26.40;;;23.52;;
47625;SDS011;33342;45.574;9.252;2023-04-30T02:57:19;29.08;;;24.58;;
47625;SDS011;33342;45.574;9.252;2023-04-30T02:59:46;29.30;;;23.67;;
47625;SDS011;33342;45.574;9.252;2023-04-30T03:02:13;26.38;;;23.42;;
47625;SDS011;33342;45.574;9.252;2023-04-30T03:04:40;29.85;;;25.65;;
47625;SDS011;33342;45.574;9.252;2023-04-30T03:07:07;27.20;;;24.20;;
47625;SDS011;33342;45.574;9.252;2023-04-30T03:09:35;28.40;;;25.40;;
47625;SDS011;33342;45.574;9.252;2023-04-30T03:12:02;31.77;;;24.30;;
47625;SDS011;33342;45.574;9.252;2023-04-30T03:14:29;29.35;;;25.00;;
47625;SDS011;33342;45.574;9.252;2023-04-30T03:16:56;29.60;;;24.25;;
47625;SDS011;33342;45.574;9.252;2023-04-30T03:19:23;28.90;;;25.38;;
47625;SDS011;33342;45.574;9.252;2023-04-30T03:21:50;28.88;;;25.83;;
47625;SDS011;33342;45.574;9.252;2023-04-30T03:24:18;31.38;;;24.90;;
47625;SDS011;33342;45.574;9.252;2023-04-30T03:26:45;29.23;;;25.17;;
47625;SDS011;33342;45.574;9.252;2023-04-30T03:29:12;29.80;;;25.35;;
47625;SDS011;33342;45.574;9.252;2023-04-30T03:31:39;29.52;;;26.33;;
47625;SDS011;33342;45.574;9.252;2023-04-30T03:34:06;34.40;;;25.50;;
47625;SDS011;33342;45.574;9.252;2023-04-30T03:36:34;29.75;;;24.88;;
47625;SDS011;33342;45.574;9.252;2023-04-30T03:39:01;28.95;;;25.90;;
47625;SDS011;33342;45.574;9.252;2023-04-30T03:41:29;32.25;;;26.23;;
47625;SDS011;33342;45.574;9.252;2023-04-30T03:43:56;27.75;;;23.88;;
47625;SDS011;33342;45.574;9.252;2023-04-30T03:46:23;27.92;;;24.88;;
47625;SDS011;33342;45.574;9.252;2023-04-30T03:48:50;30.23;;;25.65;;
47625;SDS011;33342;45.574;9.252;2023-04-30T03:51:18;31.05;;;25.73;;
47625;SDS011;33342;45.574;9.252;2023-04-30T03:53:46;30.45;;;27.25;;
47625;SDS011;33342;45.574;9.252;2023-04-30T03:56:13;29.05;;;25.00;;
47625;SDS011;33342;45.574;9.252;2023-04-30T03:58:41;28.83;;;25.60;;
47625;SDS011;33342;45.574;9.252;2023-04-30T04:01:08;29.55;;;26.35;;
47625;SDS011;33342;45.574;9.252;2023-04-30T04:03:35;28.70;;;25.63;;
47625;SDS011;33342;45.574;9.252;2023-04-30T04:06:03;28.65;;;25.60;;
47625;SDS011;33342;45.574;9.252;2023-04-30T04:08:30;32.20;;;26.42;;
47625;SDS011;33342;45.574;9.252;2023-04-30T04:10:58;28.98;;;25.85;;
47625;SDS011;33342;45.574;9.252;2023-04-30T04:13:25;29.45;;;25.95;;
47625;SDS011;33342;45.574;9.252;2023-04-30T04:15:52;30.73;;;27.30;;
47625;SDS011;33342;45.574;9.252;2023-04-30T04:18:20;31.63;;;27.17;;
47625;SDS011;33342;45.574;9.252;2023-04-30T04:20:46;34.17;;;27.88;;
47625;SDS011;33342;45.574;9.252;2023-04-30T04:23:15;31.05;;;26.38;;
47625;SDS011;33342;45.574;9.252;2023-04-30T04:25:42;30.90;;;27.60;;
47625;SDS011;33342;45.574;9.252;2023-04-30T04:28:10;32.35;;;27.13;;
47625;SDS011;33342;45.574;9.252;2023-04-30T04:30:38;31.10;;;27.73;;
47625;SDS011;33342;45.574;9.252;2023-04-30T04:33:06;30.40;;;27.15;;
47625;SDS011;33342;45.574;9.252;2023-04-30T04:35:34;32.25;;;26.13;;
47625;SDS011;33342;45.574;9.252;2023-04-30T04:38:01;31.90;;;26.42;;
47625;SDS011;33342;45.574;9.252;2023-04-30T04:40:28;32.03;;;27.60;;
47625;SDS011;33342;45.574;9.252;2023-04-30T04:42:57;31.50;;;25.08;;
47625;SDS011;33342;45.574;9.252;2023-04-30T04:45:24;29.63;;;25.42;;
47625;SDS011;33342;45.574;9.252;2023-04-30T04:47:52;34.53;;;26.58;;
47625;SDS011;33342;45.574;9.252;2023-04-30T04:50:20;30.17;;;24.65;;
47625;SDS011;33342;45.574;9.252;2023-04-30T04:52:47;29.05;;;25.95;;
47625;SDS011;33342;45.574;9.252;2023-04-30T04:55:14;27.50;;;24.20;;
47625;SDS011;33342;45.574;9.252;2023-04-30T04:57:41;31.77;;;24.73;;
47625;SDS011;33342;45.574;9.252;2023-04-30T05:00:08;31.73;;;25.67;;
47625;SDS011;33342;45.574;9.252;2023-04-30T05:02:37;32.28;;;26.48;;
47625;SDS011;33342;45.574;9.252;2023-04-30T05:05:05;28.05;;;25.05;;
47625;SDS011;33342;45.574;9.252;2023-04-30T05:07:32;29.48;;;25.80;;
47625;SDS011;33342;45.574;9.252;2023-04-30T05:10:01;32.17;;;26.05;;
47625;SDS011;33342;45.574;9.252;2023-04-30T05:12:29;30.30;;;25.95;;
47625;SDS011;33342;45.574;9.252;2023-04-30T05:14:55;31.90;;;26.90;;
47625;SDS011;33342;45.574;9.252;2023-04-30T05:17:22;29.98;;;26.70;;
47625;SDS011;33342;45.574;9.252;2023-04-30T05:19:50;30.02;;;25.88;;
47625;SDS011;33342;45.574;9.252;2023-04-30T05:22:17;28.52;;;25.13;;
47625;SDS011;33342;45.574;9.252;2023-04-30T05:24:44;29.40;;;25.92;;
47625;SDS011;33342;45.574;9.252;2023-04-30T05:27:11;29.10;;;25.38;;
47625;SDS011;33342;45.574;9.252;2023-04-30T05:29:38;29.85;;;25.75;;
47625;SDS011;33342;45.574;9.252;2023-04-30T05:32:05;29.63;;;25.02;;
47625;SDS011;33342;45.574;9.252;2023-04-30T05:34:33;28.95;;;25.10;;
47625;SDS011;33342;45.574;9.252;2023-04-30T05:37:01;29.30;;;26.08;;
47625;SDS011;33342;45.574;9.252;2023-04-30T05:39:29;29.77;;;25.83;;
47625;SDS011;33342;45.574;9.252;2023-04-30T05:41:56;31.73;;;26.55;;
47625;SDS011;33342;45.574;9.252;2023-04-30T05:44:23;31.20;;;27.17;;
47625;SDS011;33342;45.574;9.252;2023-04-30T05:46:50;29.80;;;25.98;;
47625;SDS011;33342;45.574;9.252;2023-04-30T05:49:17;40.72;;;36.42;;
47625;SDS011;33342;45.574;9.252;2023-04-30T05:51:44;62.85;;;52.75;;
47625;SDS011;33342;45.574;9.252;2023-04-30T05:54:11;32.13;;;28.55;;
47625;SDS011;33342;45.574;9.252;2023-04-30T05:56:38;32.42;;;27.70;;
47625;SDS011;33342;45.574;9.252;2023-04-30T05:59:05;34.40;;;27.90;;
47625;SDS011;33342;45.574;9.252;2023-04-30T06:01:32;31.98;;;28.58;;
47625;SDS011;33342;45.574;9.252;2023-04-30T06:03:59;34.60;;;28.55;;
47625;SDS011;33342;45.574;9.252;2023-04-30T06:06:26;32.15;;;28.63;;
47625;SDS011;33342;45.574;9.252;2023-04-30T06:08:53;34.17;;;30.58;;
47625;SDS011;33342;45.574;9.252;2023-04-30T06:11:20;33.55;;;29.95;;
47625;SDS011;33342;45.574;9.252;2023-04-30T06:13:48;33.83;;;29.02;;
47625;SDS011;33342;45.574;9.252;2023-04-30T06:16:15;38.28;;;29.90;;
47625;SDS011;33342;45.574;9.252;2023-04-30T06:18:42;34.13;;;29.50;;
47625;SDS011;33342;45.574;9.252;2023-04-30T06:21:09;33.95;;;30.05;;
47625;SDS011;33342;45.574;9.252;2023-04-30T06:23:36;37.45;;;31.15;;
47625;SDS011;33342;45.574;9.252;2023-04-30T06:26:03;34.35;;;30.63;;
47625;SDS011;33342;45.574;9.252;2023-04-30T06:28:30;36.33;;;30.30;;
47625;SDS011;33342;45.574;9.252;2023-04-30T06:30:57;32.22;;;28.70;;
47625;SDS011;33342;45.574;9.252;2023-04-30T06:33:25;32.28;;;28.83;;
47625;SDS011;33342;45.574;9.252;2023-04-30T06:35:51;33.28;;;29.65;;
47625;SDS011;33342;45.574;9.252;2023-04-30T06:38:21;35.65;;;31.02;;
47625;SDS011;33342;45.574;9.252;2023-04-30T06:40:48;33.38;;;29.60;;
47625;SDS011;33342;45.574;9.252;2023-04-30T06:43:15;34.97;;;30.30;;
47625;SDS011;33342;45.574;9.252;2023-04-30T06:45:42;36.28;;;31.15;;
47625;SDS011;33342;45.574;9.252;2023-04-30T06:48:09;38.08;;;29.50;;
47625;SDS011;33342;45.574;9.252;2023-04-30T06:50:36;36.83;;;29.83;;
47625;SDS011;33342;45.574;9.252;2023-04-30T06:53:10;33.40;;;29.45;;
47625;SDS011;33342;45.574;9.252;2023-04-30T06:55:38;32.17;;;27.80;;
47625;SDS011;33342;45.574;9.252;2023-04-30T06:58:06;36.58;;;28.77;;
47625;SDS011;33342;45.574;9.252;2023-04-30T07:00:33;34.25;;;27.50;;
47625;SDS011;33342;45.574;9.252;2023-04-30T07:03:00;34.05;;;27.50;;
47625;SDS011;33342;45.574;9.252;2023-04-30T07:05:29;34.63;;;28.02;;
47625;SDS011;33342;45.574;9.252;2023-04-30T07:07:57;31.70;;;28.23;;
47625;SDS011;33342;45.574;9.252;2023-04-30T07:10:26;33.63;;;27.33;;
47625;SDS011;33342;45.574;9.252;2023-04-30T07:12:53;31.58;;;26.65;;
47625;SDS011;33342;45.574;9.252;2023-04-30T07:15:20;70.30;;;57.78;;
47625;SDS011;33342;45.574;9.252;2023-04-30T07:17:47;39.83;;;32.60;;
47625;SDS011;33342;45.574;9.252;2023-04-30T07:20:15;28.30;;;24.58;;
47625;SDS011;33342;45.574;9.252;2023-04-30T07:22:42;26.27;;;23.38;;
47625;SDS011;33342;45.574;9.252;2023-04-30T07:25:11;29.13;;;23.45;;
47625;SDS011;33342;45.574;9.252;2023-04-30T07:27:39;29.27;;;24.10;;
47625;SDS011;33342;45.574;9.252;2023-04-30T07:30:06;26.27;;;23.48;;
47625;SDS011;33342;45.574;9.252;2023-04-30T07:32:37;33.28;;;25.65;;
47625;SDS011;33342;45.574;9.252;2023-04-30T07:35:06;30.95;;;24.30;;
47625;SDS011;33342;45.574;9.252;2023-04-30T07:37:33;31.00;;;22.88;;
47625;SDS011;33342;45.574;9.252;2023-04-30T07:40:01;26.00;;;22.25;;
47625;SDS011;33342;45.574;9.252;2023-04-30T07:42:29;26.63;;;22.48;;
47625;SDS011;33342;45.574;9.252;2023-04-30T07:44:56;27.73;;;22.30;;
47625;SDS011;33342;45.574;9.252;2023-04-30T07:47:23;26.58;;;21.00;;
47625;SDS011;33342;45.574;9.252;2023-04-30T07:49:51;24.23;;;20.90;;
47625;SDS011;33342;45.574;9.252;2023-04-30T07:52:18;24.95;;;20.77;;
47625;SDS011;33342;45.574;9.252;2023-04-30T07:54:45;25.70;;;21.52;;
47625;SDS011;33342;45.574;9.252;2023-04-30T07:57:12;24.38;;;20.83;;
47625;SDS011;33342;45.574;9.252;2023-04-30T07:59:39;24.35;;;20.05;;
47625;SDS011;33342;45.574;9.252;2023-04-30T08:02:07;24.45;;;20.25;;
47625;SDS011;33342;45.574;9.252;2023-04-30T08:04:34;26.17;;;20.40;;
47625;SDS011;33342;45.574;9.252;2023-04-30T08:07:02;23.85;;;21.25;;
47625;SDS011;33342;45.574;9.252;2023-04-30T08:09:30;26.30;;;20.98;;
47625;SDS011;33342;45.574;9.252;2023-04-30T08:11:57;26.58;;;20.75;;
47625;SDS011;33342;45.574;9.252;2023-04-30T08:14:24;27.40;;;21.95;;
47625;SDS011;33342;45.574;9.252;2023-04-30T08:16:51;25.30;;;20.33;;
47625;SDS011;33342;45.574;9.252;2023-04-30T08:19:18;25.60;;;22.25;;
47625;SDS011;33342;45.574;9.252;2023-04-30T08:21:45;26.17;;;21.73;;
47625;SDS011;33342;45.574;9.252;2023-04-30T08:24:12;25.58;;;20.92;;
47625;SDS011;33342;45.574;9.252;2023-04-30T08:26:39;26.63;;;20.73;;
47625;SDS011;33342;45.574;9.252;2023-04-30T08:29:06;24.02;;;20.73;;
47625;SDS011;33342;45.574;9.252;2023-04-30T08:31:33;27.02;;;21.35;;
47625;SDS011;33342;45.574;9.252;2023-04-30T08:34:01;25.52;;;21.00;;
47625;SDS011;33342;45.574;9.252;2023-04-30T08:36:28;25.20;;;20.67;;
47625;SDS011;33342;45.574;9.252;2023-04-30T08:38:55;25.70;;;21.23;;
47625;SDS011;33342;45.574;9.252;2023-04-30T08:41:24;27.95;;;21.13;;
47625;SDS011;33342;45.574;9.252;2023-04-30T08:43:52;27.92;;;21.02;;
47625;SDS011;33342;45.574;9.252;2023-04-30T08:46:19;24.48;;;19.05;;
47625;SDS011;33342;45.574;9.252;2023-04-30T08:48:48;21.92;;;18.55;;
47625;SDS011;33342;45.574;9.252;2023-04-30T08:51:15;21.30;;;17.98;;
47625;SDS011;33342;45.574;9.252;2023-04-30T08:56:19;21.38;;;17.98;;
47625;SDS011;33342;45.574;9.252;2023-04-30T08:58:48;22.42;;;17.75;;
47625;SDS011;33342;45.574;9.252;2023-04-30T09:01:15;25.27;;;18.67;;
47625;SDS011;33342;45.574;9.252;2023-04-30T09:03:43;25.50;;;19.60;;
47625;SDS011;33342;45.574;9.252;2023-04-30T09:06:14;26.92;;;18.27;;
47625;SDS011;33342;45.574;9.252;2023-04-30T09:08:45;23.67;;;19.35;;
47625;SDS011;33342;45.574;9.252;2023-04-30T09:11:23;25.05;;;18.98;;
47625;SDS011;33342;45.574;9.252;2023-04-30T09:13:52;25.63;;;19.00;;
47625;SDS011;33342;45.574;9.252;2023-04-30T09:16:23;26.33;;;19.83;;
47625;SDS011;33342;45.574;9.252;2023-04-30T09:18:51;24.52;;;19.83;;
47625;SDS011;33342;45.574;9.252;2023-04-30T09:21:31;23.02;;;18.65;;
47625;SDS011;33342;45.574;9.252;2023-04-30T09:24:00;20.95;;;17.90;;
47625;SDS011;33342;45.574;9.252;2023-04-30T09:26:37;23.90;;;17.92;;
47625;SDS011;33342;45.574;9.252;2023-04-30T09:29:04;21.70;;;17.27;;
47625;SDS011;33342;45.574;9.252;2023-04-30T09:31:36;20.20;;;16.95;;
47625;SDS011;33342;45.574;9.252;2023-04-30T09:34:04;19.42;;;16.27;;
47625;SDS011;33342;45.574;9.252;2023-04-30T09:36:32;19.95;;;16.27;;
47625;SDS011;33342;45.574;9.252;2023-04-30T09:39:09;19.13;;;16.00;;
47625;SDS011;33342;45.574;9.252;2023-04-30T09:41:41;22.85;;;17.13;;
47625;SDS011;33342;45.574;9.252;2023-04-30T09:46:55;23.33;;;17.35;;
47625;SDS011;33342;45.574;9.252;2023-04-30T09:49:24;25.88;;;19.38;;
47625;SDS011;33342;45.574;9.252;2023-04-30T09:51:56;19.73;;;17.02;;
47625;SDS011;33342;45.574;9.252;2023-04-30T09:54:25;22.70;;;17.77;;
47625;SDS011;33342;45.574;9.252;2023-04-30T09:56:54;25.85;;;17.65;;
47625;SDS011;33342;45.574;9.252;2023-04-30T09:59:30;26.73;;;18.92;;
47625;SDS011;33342;45.574;9.252;2023-04-30T10:02:01;20.23;;;16.90;;
47625;SDS011;33342;45.574;9.252;2023-04-30T10:04:37;23.08;;;17.45;;
47625;SDS011;33342;45.574;9.252;2023-04-30T10:07:05;19.97;;;16.13;;
47625;SDS011;33342;45.574;9.252;2023-04-30T10:09:42;21.67;;;16.98;;
47625;SDS011;33342;45.574;9.252;2023-04-30T10:12:29;19.60;;;16.42;;
47625;SDS011;33342;45.574;9.252;2023-04-30T10:15:19;20.88;;;16.55;;
47625;SDS011;33342;45.574;9.252;2023-04-30T10:17:59;24.35;;;17.05;;
47625;SDS011;33342;45.574;9.252;2023-04-30T10:20:29;22.98;;;17.25;;
47625;SDS011;33342;45.574;9.252;2023-04-30T10:22:59;21.27;;;17.35;;
47625;SDS011;33342;45.574;9.252;2023-04-30T10:25:27;22.52;;;17.02;;
47625;SDS011;33342;45.574;9.252;2023-04-30T10:27:54;20.48;;;16.90;;
47625;SDS011;33342;45.574;9.252;2023-04-30T10:30:22;17.95;;;15.70;;
47625;SDS011;33342;45.574;9.252;2023-04-30T10:38:29;17.33;;;13.80;;
47625;SDS011;33342;45.574;9.252;2023-04-30T10:40:58;17.35;;;12.80;;
47625;SDS011;33342;45.574;9.252;2023-04-30T10:43:29;17.92;;;11.90;;
47625;SDS011;33342;45.574;9.252;2023-04-30T10:45:57;16.10;;;11.90;;
47625;SDS011;33342;45.574;9.252;2023-04-30T10:48:24;15.70;;;11.80;;
47625;SDS011;33342;45.574;9.252;2023-04-30T10:50:59;15.18;;;11.27;;
47625;SDS011;33342;45.574;9.252;2023-04-30T10:53:29;16.10;;;11.57;;
47625;SDS011;33342;45.574;9.252;2023-04-30T10:55:58;15.90;;;11.38;;
47625;SDS011;33342;45.574;9.252;2023-04-30T10:58:35;16.88;;;11.68;;
47625;SDS011;33342;45.574;9.252;2023-04-30T11:03:34;17.95;;;12.07;;
47625;SDS011;33342;45.574;9.252;2023-04-30T11:06:12;18.40;;;12.45;;
47625;SDS011;33342;45.574;9.252;2023-04-30T11:08:43;15.88;;;11.55;;
47625;SDS011;33342;45.574;9.252;2023-04-30T11:11:12;17.38;;;13.05;;
47625;SDS011;33342;45.574;9.252;2023-04-30T11:13:47;24.15;;;18.60;;
47625;SDS011;33342;45.574;9.252;2023-04-30T11:16:28;37.58;;;26.77;;
47625;SDS011;33342;45.574;9.252;2023-04-30T11:19:04;15.48;;;12.32;;
47625;SDS011;33342;45.574;9.252;2023-04-30T11:21:40;19.40;;;12.60;;
47625;SDS011;33342;45.574;9.252;2023-04-30T11:24:08;19.13;;;11.80;;
47625;SDS011;33342;45.574;9.252;2023-04-30T11:29:34;14.68;;;10.80;;
47625;SDS011;33342;45.574;9.252;2023-04-30T11:32:02;14.32;;;10.30;;
47625;SDS011;33342;45.574;9.252;2023-04-30T11:34:30;16.95;;;11.80;;
47625;SDS011;33342;45.574;9.252;2023-04-30T11:36:59;14.43;;;11.70;;
47625;SDS011;33342;45.574;9.252;2023-04-30T11:39:28;15.65;;;11.55;;
47625;SDS011;33342;45.574;9.252;2023-04-30T11:42:00;16.00;;;12.48;;
47625;SDS011;33342;45.574;9.252;2023-04-30T11:44:28;14.75;;;11.40;;
47625;SDS011;33342;45.574;9.252;2023-04-30T11:46:55;16.77;;;12.07;;
47625;SDS011;33342;45.574;9.252;2023-04-30T11:49:22;15.90;;;11.35;;
47625;SDS011;33342;45.574;9.252;2023-04-30T11:51:49;15.40;;;11.20;;
47625;SDS011;33342;45.574;9.252;2023-04-30T11:54:17;17.35;;;10.98;;
47625;SDS011;33342;45.574;9.252;2023-04-30T11:56:45;15.20;;;11.65;;
47625;SDS011;33342;45.574;9.252;2023-04-30T11:59:14;16.45;;;11.63;;
47625;SDS011;33342;45.574;9.252;2023-04-30T12:01:42;15.02;;;11.57;;
47625;SDS011;33342;45.574;9.252;2023-04-30T12:04:09;15.60;;;11.27;;
47625;SDS011;33342;45.574;9.252;2023-04-30T12:06:37;13.23;;;10.70;;
47625;SDS011;33342;45.574;9.252;2023-04-30T12:09:05;16.63;;;12.05;;
47625;SDS011;33342;45.574;9.252;2023-04-30T12:11:34;16.75;;;11.73;;
47625;SDS011;33342;45.574;9.252;2023-04-30T12:14:02;16.02;;;10.88;;
47625;SDS011;33342;45.574;9.252;2023-04-30T12:16:42;16.92;;;10.65;;
47625;SDS011;33342;45.574;9.252;2023-04-30T12:19:11;13.40;;;9.27;;
47625;SDS011;33342;45.574;9.252;2023-04-30T12:21:38;14.30;;;10.63;;
47625;SDS011;33342;45.574;9.252;2023-04-30T12:24:07;16.30;;;10.07;;
47625;SDS011;33342;45.574;9.252;2023-04-30T12:26:36;13.60;;;10.10;;
47625;SDS011;33342;45.574;9.252;2023-04-30T12:29:08;15.48;;;9.85;;
47625;SDS011;33342;45.574;9.252;2023-04-30T12:31:43;14.23;;;9.63;;
47625;SDS011;33342;45.574;9.252;2023-04-30T12:34:15;13.27;;;9.82;;
47625;SDS011;33342;45.574;9.252;2023-04-30T12:36:43;14.10;;;10.48;;
47625;SDS011;33342;45.574;9.252;2023-04-30T12:39:11;15.65;;;10.07;;
47625;SDS011;33342;45.574;9.252;2023-04-30T12:41:42;13.88;;;10.00;;
47625;SDS011;33342;45.574;9.252;2023-04-30T12:46:41;14.15;;;9.75;;
47625;SDS011;33342;45.574;9.252;2023-04-30T12:49:09;15.50;;;10.07;;
47625;SDS011;33342;45.574;9.252;2023-04-30T12:51:37;13.77;;;9.88;;
47625;SDS011;33342;45.574;9.252;2023-04-30T12:54:08;14.18;;;10.52;;
47625;SDS011;33342;45.574;9.252;2023-04-30T12:56:35;13.15;;;9.63;;
47625;SDS011;33342;45.574;9.252;2023-04-30T12:59:02;13.82;;;9.55;;
47625;SDS011;33342;45.574;9.252;2023-04-30T13:01:29;11.95;;;9.50;;
47625;SDS011;33342;45.574;9.252;2023-04-30T13:03:56;15.18;;;9.82;;
47625;SDS011;33342;45.574;9.252;2023-04-30T13:06:23;16.73;;;12.40;;
47625;SDS011;33342;45.574;9.252;2023-04-30T13:08:51;26.08;;;23.27;;
47625;SDS011;33342;45.574;9.252;2023-04-30T13:11:21;40.40;;;14.93;;
47625;SDS011;33342;45.574;9.252;2023-04-30T13:13:48;17.48;;;10.40;;
47625;SDS011;33342;45.574;9.252;2023-04-30T13:16:15;13.98;;;10.27;;
47625;SDS011;33342;45.574;9.252;2023-04-30T13:18:42;12.68;;;9.90;;
47625;SDS011;33342;45.574;9.252;2023-04-30T13:21:10;12.48;;;9.93;;
47625;SDS011;33342;45.574;9.252;2023-04-30T13:23:38;17.17;;;9.25;;
47625;SDS011;33342;45.574;9.252;2023-04-30T13:26:17;13.38;;;8.82;;
47625;SDS011;33342;45.574;9.252;2023-04-30T13:28:45;12.70;;;8.30;;
47625;SDS011;33342;45.574;9.252;2023-04-30T13:31:11;12.35;;;7.78;;
47625;SDS011;33342;45.574;9.252;2023-04-30T13:33:39;12.10;;;7.38;;
47625;SDS011;33342;45.574;9.252;2023-04-30T13:36:07;14.98;;;7.10;;
47625;SDS011;33342;45.574;9.252;2023-04-30T13:38:34;12.63;;;7.78;;
47625;SDS011;33342;45.574;9.252;2023-04-30T13:41:01;11.27;;;7.40;;
47625;SDS011;33342;45.574;9.252;2023-04-30T13:43:28;10.77;;;7.55;;
47625;SDS011;33342;45.574;9.252;2023-04-30T13:45:55;11.43;;;7.30;;
47625;SDS011;33342;45.574;9.252;2023-04-30T13:48:24;13.38;;;7.00;;
47625;SDS011;33342;45.574;9.252;2023-04-30T13:50:51;12.68;;;7.03;;
47625;SDS011;33342;45.574;9.252;2023-04-30T13:53:18;10.63;;;7.07;;
47625;SDS011;33342;45.574;9.252;2023-04-30T13:55:45;12.68;;;7.32;;
47625;SDS011;33342;45.574;9.252;2023-04-30T13:58:12;10.07;;;7.05;;
47625;SDS011;33342;45.574;9.252;2023-04-30T14:00:39;9.48;;;7.03;;
47625;SDS011;33342;45.574;9.252;2023-04-30T14:03:06;15.13;;;7.25;;
47625;SDS011;33342;45.574;9.252;2023-04-30T14:05:34;12.38;;;6.90;;
47625;SDS011;33342;45.574;9.252;2023-04-30T14:08:02;13.73;;;7.40;;
47625;SDS011;33342;45.574;9.252;2023-04-30T14:10:30;13.85;;;7.10;;
47625;SDS011;33342;45.574;9.252;2023-04-30T14:12:58;11.68;;;7.07;;
47625;SDS011;33342;45.574;9.252;2023-04-30T14:15:25;12.35;;;8.02;;
47625;SDS011;33342;45.574;9.252;2023-04-30T14:17:53;11.30;;;8.05;;
47625;SDS011;33342;45.574;9.252;2023-04-30T14:20:20;13.25;;;8.02;;
47625;SDS011;33342;45.574;9.252;2023-04-30T14:22:47;13.30;;;6.80;;
47625;SDS011;33342;45.574;9.252;2023-04-30T14:25:14;10.32;;;6.53;;
47625;SDS011;33342;45.574;9.252;2023-04-30T14:27:41;33.63;;;26.55;;
47625;SDS011;33342;45.574;9.252;2023-04-30T14:30:09;13.95;;;8.90;;
47625;SDS011;33342;45.574;9.252;2023-04-30T14:32:36;13.27;;;6.78;;
47625;SDS011;33342;45.574;9.252;2023-04-30T14:35:03;10.70;;;6.95;;
47625;SDS011;33342;45.574;9.252;2023-04-30T14:37:31;10.43;;;6.13;;
47625;SDS011;33342;45.574;9.252;2023-04-30T14:39:58;9.55;;;6.05;;
47625;SDS011;33342;45.574;9.252;2023-04-30T14:42:27;11.90;;;6.07;;
47625;SDS011;33342;45.574;9.252;2023-04-30T14:44:54;10.48;;;5.93;;
47625;SDS011;33342;45.574;9.252;2023-04-30T14:47:21;10.48;;;6.43;;
47625;SDS011;33342;45.574;9.252;2023-04-30T14:49:52;9.15;;;5.43;;
47625;SDS011;33342;45.574;9.252;2023-04-30T14:52:20;8.38;;;5.57;;
47625;SDS011;33342;45.574;9.252;2023-04-30T14:54:47;9.10;;;5.68;;
47625;SDS011;33342;45.574;9.252;2023-04-30T14:57:15;12.40;;;5.88;;
47625;SDS011;33342;45.574;9.252;2023-04-30T14:59:43;9.57;;;6.05;;
47625;SDS011;33342;45.574;9.252;2023-04-30T15:02:10;10.57;;;5.80;;
47625;SDS011;33342;45.574;9.252;2023-04-30T15:04:37;8.68;;;6.00;;
47625;SDS011;33342;45.574;9.252;2023-04-30T15:07:05;8.93;;;5.75;;
47625;SDS011;33342;45.574;9.252;2023-04-30T15:09:32;9.52;;;5.88;;
47625;SDS011;33342;45.574;9.252;2023-04-30T15:11:59;8.35;;;5.38;;